Time;durP1;ratioP1;P1;durP2;ratioP2;P2;SDS_P1;SDS_P2;PMS_P1;PMS_P2;Temp;Humidity;BMP_temperature;BMP_pressure;BME280_temperature;BME280_humidity;BME280_pressure;Samples;Min_cycle;Max_cycle;Signal;HPM_P1;HPM_P2
2023/06/26 00:01:15;;;;;;;0.00;0.00;;;;;;;23.29;nan;100261.59;4990480;28;20711;-90
2023/06/26 00:03:40;;;;;;;0.00;0.00;;;;;;;23.15;nan;100265.22;4990936;28;20279;-89
2023/06/26 00:06:05;;;;;;;1.23;1.13;;;;;;;23.07;nan;100264.44;4975504;28;20275;-91
2023/06/26 00:08:31;;;;;;;0.97;0.67;;;;;;;23.05;nan;100266.03;4974222;28;20648;-91
2023/06/26 00:10:56;;;;;;;0.37;0.37;;;;;;;23.00;nan;100258.06;4973965;28;20869;-90
2023/06/26 00:13:23;;;;;;;0.43;0.43;;;;;;;22.91;nan;100254.91;4990240;28;20199;-89
2023/06/26 00:15:48;;;;;;;0.00;0.00;;;;;;;22.96;nan;100251.72;4974455;28;20210;-90
2023/06/26 00:18:14;;;;;;;0.53;0.53;;;;;;;22.80;nan;100249.31;4975247;28;20662;-89
2023/06/26 00:20:39;;;;;;;0.33;0.33;;;;;;;22.69;nan;100256.88;4990257;28;20201;-90
2023/06/26 00:23:07;;;;;;;0.10;0.10;;;;;;;22.46;nan;100260.06;4990176;28;20324;-91
2023/06/26 00:25:32;;;;;;;1.07;0.47;;;;;;;22.43;nan;100258.88;4974349;28;20785;-90
2023/06/26 00:27:58;;;;;;;0.20;0.20;;;;;;;22.35;nan;100262.03;4973817;28;20198;-90
2023/06/26 00:30:23;;;;;;;0.10;0.10;;;;;;;22.33;nan;100258.84;4973579;28;20553;-90
2023/06/26 00:32:48;;;;;;;0.53;0.53;;;;;;;22.20;nan;100255.63;4990309;28;20199;-91
2023/06/26 00:35:14;;;;;;;0.20;0.20;;;;;;;22.21;nan;100266.38;4973929;28;20628;-90
2023/06/26 00:37:39;;;;;;;0.33;0.33;;;;;;;22.15;nan;100273.53;4989954;28;20195;-90
2023/06/26 00:40:05;;;;;;;0.70;0.50;;;;;;;22.00;nan;100271.06;4974881;28;20193;-90
2023/06/26 00:42:30;;;;;;;0.20;0.20;;;;;;;21.81;nan;100267.41;4975042;28;20181;-90
2023/06/26 00:44:56;;;;;;;0.67;0.67;;;;;;;21.89;nan;100257.13;4989246;28;20190;-90
2023/06/26 00:47:21;;;;;;;3.97;0.93;;;;;;;22.00;nan;100246.03;4990325;28;20269;-90
2023/06/26 00:49:47;;;;;;;2.43;0.40;;;;;;;21.97;nan;100253.94;4989673;28;20279;-89
2023/06/26 00:52:12;;;;;;;0.23;0.23;;;;;;;22.06;nan;100250.84;4973569;28;20217;-90
2023/06/26 00:54:38;;;;;;;0.00;0.00;;;;;;;22.12;nan;100242.88;4974857;28;20640;-90
2023/06/26 00:57:04;;;;;;;0.00;0.00;;;;;;;22.09;nan;100240.91;4974458;28;20200;-90
2023/06/26 00:59:29;;;;;;;0.00;0.00;;;;;;;21.92;nan;100243.22;4973185;28;20200;-90
2023/06/26 01:01:55;;;;;;;0.10;0.10;;;;;;;22.01;nan;100242.84;4989337;28;20208;-91
2023/06/26 01:04:20;;;;;;;0.00;0.00;;;;;;;21.86;nan;100241.22;4974696;28;20553;-90
2023/06/26 01:06:50;;;;;;;0.00;0.00;;;;;;;21.81;nan;100242.38;4974771;28;20603;-90
2023/06/26 01:09:18;;;;;;;0.00;0.00;;;;;;;21.89;nan;100224.53;4974387;28;20196;-90
2023/06/26 01:11:46;;;;;;;0.00;0.00;;;;;;;21.89;nan;100230.09;4989580;28;20226;-90
2023/06/26 01:14:12;;;;;;;0.00;0.00;;;;;;;21.88;nan;100231.28;4973662;28;20287;-90
2023/06/26 01:16:39;;;;;;;0.00;0.00;;;;;;;21.84;nan;100224.91;4973602;28;20223;-90
2023/06/26 01:19:24;;;;;;;0.43;0.43;;;;;;;21.77;nan;100227.69;4989285;28;20200;-91
2023/06/26 01:21:57;;;;;;;0.00;0.00;;;;;;;21.73;nan;100220.53;4989408;28;20210;-90
2023/06/26 01:24:27;;;;;;;0.00;0.00;;;;;;;21.61;nan;100228.03;4973234;28;20194;-90
2023/06/26 01:26:56;;;;;;;0.10;0.10;;;;;;;21.53;nan;100228.38;4989100;28;20272;-90
2023/06/26 01:29:23;;;;;;;0.00;0.00;;;;;;;21.39;nan;100223.56;4972553;28;20577;-92
2023/06/26 01:31:49;;;;;;;0.00;0.00;;;;;;;21.36;nan;100229.91;4973912;28;20203;-91
2023/06/26 01:34:18;;;;;;;0.20;0.20;;;;;;;21.13;nan;100219.03;4972613;28;20201;-91
2023/06/26 01:37:00;;;;;;;0.10;0.10;;;;;;;21.04;nan;100219.38;4973603;28;20273;-90
2023/06/26 01:39:26;;;;;;;0.20;0.20;;;;;;;20.83;nan;100224.81;4965882;28;20268;-90
2023/06/26 01:41:51;;;;;;;0.33;0.33;;;;;;;20.61;nan;100214.72;4988601;28;20352;-90
2023/06/26 01:44:27;;;;;;;0.00;0.00;;;;;;;20.56;nan;100218.66;4972799;28;20560;-90
2023/06/26 01:47:01;;;;;;;0.00;0.00;;;;;;;20.45;nan;100217.75;4973541;28;20212;-89
2023/06/26 01:49:51;;;;;;;0.10;0.10;;;;;;;20.36;nan;100214.47;4988445;28;20561;-90
2023/06/26 01:52:25;;;;;;;0.23;0.23;;;;;;;20.27;nan;100212.03;4964651;28;20213;-90
2023/06/26 01:55:11;;;;;;;0.00;0.00;;;;;;;20.12;nan;100207.53;4972596;28;20193;-90
2023/06/26 01:57:39;;;;;;;0.40;0.40;;;;;;;20.19;nan;100208.38;4971090;28;20189;-89
2023/06/26 02:00:06;;;;;;;0.37;0.37;;;;;;;20.11;nan;100206.72;4973247;28;20190;-90
2023/06/26 02:02:31;;;;;;;0.00;0.00;;;;;;;20.13;nan;100200.81;4972579;28;20565;-90
2023/06/26 02:04:59;;;;;;;0.00;0.00;;;;;;;20.17;nan;100201.63;4988543;28;20189;-90
2023/06/26 02:07:24;;;;;;;0.30;0.30;;;;;;;20.18;nan;100201.22;4973414;28;20186;-90
2023/06/26 02:09:50;;;;;;;0.00;0.00;;;;;;;20.11;nan;100198.41;4971985;28;20188;-89
2023/06/26 02:12:15;;;;;;;0.20;0.20;;;;;;;20.19;nan;100190.94;4979791;28;20296;-90
2023/06/26 02:14:40;;;;;;;0.00;0.00;;;;;;;20.41;nan;100189.97;4972014;28;20276;-90
2023/06/26 02:17:08;;;;;;;0.00;0.00;;;;;;;20.55;nan;100178.19;4988307;28;20236;-90
2023/06/26 02:19:34;;;;;;;0.00;0.00;;;;;;;20.67;nan;100166.75;4971909;28;20185;-90
2023/06/26 02:21:59;;;;;;;1.07;1.07;;;;;;;20.75;nan;100168.41;4973121;28;20695;-90
2023/06/26 02:24:27;;;;;;;0.00;0.00;;;;;;;20.69;nan;100169.97;4973107;28;20213;-90
2023/06/26 02:26:52;;;;;;;0.00;0.00;;;;;;;20.62;nan;100186.56;4971976;28;20221;-90
2023/06/26 02:29:17;;;;;;;0.00;0.00;;;;;;;20.61;nan;100176.63;4973222;28;20198;-89
2023/06/26 02:31:43;;;;;;;0.47;0.47;;;;;;;20.59;nan;100175.44;4971575;28;20222;-90
2023/06/26 02:34:08;;;;;;;0.17;0.17;;;;;;;20.69;nan;100171.94;4973179;28;20268;-90
2023/06/26 02:36:33;;;;;;;2.90;0.70;;;;;;;20.76;nan;100164.44;4973288;28;20182;-90
2023/06/26 02:38:59;;;;;;;0.20;0.20;;;;;;;20.72;nan;100169.19;4987691;28;20658;-90
2023/06/26 02:41:24;;;;;;;0.27;0.27;;;;;;;20.76;nan;100164.44;4971664;28;20288;-90
2023/06/26 02:43:52;;;;;;;0.50;0.50;;;;;;;20.76;nan;100161.66;4988066;28;20213;-90
2023/06/26 02:46:17;;;;;;;0.00;0.00;;;;;;;20.83;nan;100154.56;4968765;28;20186;-89
2023/06/26 02:48:43;;;;;;;0.00;0.00;;;;;;;20.98;nan;100157.03;4968507;28;20193;-90
2023/06/26 02:51:08;;;;;;;0.10;0.10;;;;;;;21.07;nan;100148.34;4972833;28;20202;-90
2023/06/26 02:53:33;;;;;;;0.00;0.00;;;;;;;21.14;nan;100140.06;4987923;28;20197;-90
2023/06/26 02:55:59;;;;;;;0.47;0.20;;;;;;;21.32;nan;100146.50;4971466;28;20187;-90
2023/06/26 02:58:24;;;;;;;0.20;0.20;;;;;;;21.56;nan;100133.09;4973165;28;20193;-90
2023/06/26 03:00:50;;;;;;;0.00;0.00;;;;;;;21.70;nan;100130.34;4972838;28;20206;-90
2023/06/26 03:03:15;;;;;;;0.20;0.20;;;;;;;21.79;nan;100129.94;4971846;28;20195;-90
2023/06/26 03:05:41;;;;;;;0.60;0.60;;;;;;;21.67;nan;100131.91;4971660;28;20236;-90
2023/06/26 03:08:06;;;;;;;0.20;0.20;;;;;;;21.68;nan;100122.38;4972161;28;20233;-90
2023/06/26 03:10:31;;;;;;;0.00;0.00;;;;;;;21.68;nan;100118.78;4975897;28;20294;-90
2023/06/26 03:13:00;;;;;;;0.00;0.00;;;;;;;21.64;nan;100113.22;4973027;28;20195;-90
2023/06/26 03:15:28;;;;;;;0.00;0.00;;;;;;;21.70;nan;100119.22;4991871;28;20220;-91
2023/06/26 03:17:53;;;;;;;0.00;0.00;;;;;;;21.53;nan;100122.72;4991568;28;20226;-90
2023/06/26 03:20:21;;;;;;;0.00;0.00;;;;;;;21.44;nan;100114.00;4975121;28;20189;-91
2023/06/26 03:22:46;;;;;;;0.00;0.00;;;;;;;21.39;nan;100127.06;4975449;28;20277;-90
2023/06/26 03:25:12;;;;;;;0.00;0.00;;;;;;;21.29;nan;100138.97;4991597;28;20280;-90
2023/06/26 03:27:37;;;;;;;0.00;0.00;;;;;;;21.18;nan;100126.97;4991814;28;20214;-90
2023/06/26 03:30:02;;;;;;;0.53;0.53;;;;;;;21.13;nan;100127.34;4991240;28;20216;-90
2023/06/26 03:32:28;;;;;;;0.67;0.67;;;;;;;20.96;nan;100128.84;4975411;28;20296;-91
2023/06/26 03:34:53;;;;;;;0.93;0.80;;;;;;;20.82;nan;100130.75;4991702;28;20220;-91
2023/06/26 03:37:18;;;;;;;0.00;0.00;;;;;;;20.87;nan;100120.09;4977023;28;20192;-91
2023/06/26 03:39:44;;;;;;;0.20;0.10;;;;;;;21.00;nan;100126.91;4975103;28;20194;-91
2023/06/26 03:42:09;;;;;;;0.00;0.00;;;;;;;21.09;nan;100118.97;4991329;28;20209;-90
2023/06/26 03:44:34;;;;;;;0.00;0.00;;;;;;;21.23;nan;100115.47;4972169;28;20569;-90
2023/06/26 03:47:00;;;;;;;0.20;0.20;;;;;;;21.23;nan;100112.69;4974105;28;20186;-90
2023/06/26 03:49:25;;;;;;;0.07;0.07;;;;;;;21.28;nan;100115.13;4974934;28;20190;-90
2023/06/26 03:51:50;;;;;;;0.97;0.97;;;;;;;21.43;nan;100113.19;4975897;28;20205;-90
2023/06/26 03:54:16;;;;;;;0.30;0.30;;;;;;;21.58;nan;100114.81;4963684;28;20661;-90
2023/06/26 03:56:41;;;;;;;0.30;0.30;;;;;;;21.55;nan;100103.66;4971919;28;20502;-90
2023/06/26 03:59:06;;;;;;;0.67;0.67;;;;;;;21.67;nan;100109.66;4974365;28;20325;-91
2023/06/26 04:01:32;;;;;;;1.30;1.20;;;;;;;21.76;nan;100108.50;4974485;28;20581;-91
2023/06/26 04:03:57;;;;;;;4.83;0.77;;;;;;;21.88;nan;100099.75;4974617;28;20214;-90
2023/06/26 04:06:22;;;;;;;1.80;1.20;;;;;;;21.91;nan;100102.53;4974778;28;20678;-89
2023/06/26 04:08:48;;;;;;;0.00;0.00;;;;;;;21.97;nan;100102.94;4974052;28;20186;-91
2023/06/26 04:11:13;;;;;;;0.53;0.53;;;;;;;22.07;nan;100104.97;4993958;23;20235;-89
2023/06/26 04:13:38;;;;;;;0.87;0.67;;;;;;;22.03;nan;100101.34;4971093;28;20191;-88
2023/06/26 04:16:04;;;;;;;0.50;0.50;;;;;;;22.19;nan;100098.19;4974148;28;20193;-89
2023/06/26 04:18:29;;;;;;;0.63;0.63;;;;;;;22.27;nan;100099.78;4973738;28;20189;-89
2023/06/26 04:21:09;;;;;;;0.60;0.60;;;;;;;22.32;nan;100090.25;4972940;28;20206;-89
2023/06/26 04:23:34;;;;;;;1.37;1.07;;;;;;;22.37;nan;100096.19;4974038;28;20194;-88
2023/06/26 04:26:00;;;;;;;0.73;0.73;;;;;;;22.43;nan;100091.03;4974473;28;20596;-89
2023/06/26 04:28:25;;;;;;;0.30;0.30;;;;;;;22.46;nan;100084.66;4974128;28;20197;-89
2023/06/26 04:30:51;;;;;;;0.67;0.67;;;;;;;22.22;nan;100072.34;4974153;28;20210;-89
2023/06/26 04:33:16;;;;;;;0.00;0.00;;;;;;;22.65;nan;100072.25;4970889;28;20191;-89
2023/06/26 04:35:44;;;;;;;0.60;0.60;;;;;;;22.65;nan;100070.28;4985802;28;20272;-89
2023/06/26 04:38:10;;;;;;;0.00;0.00;;;;;;;22.51;nan;100065.53;4973734;28;20192;-89
2023/06/26 04:40:35;;;;;;;0.77;0.77;;;;;;;22.72;nan;100070.25;4973568;28;20217;-88
2023/06/26 04:43:00;;;;;;;2.40;1.67;;;;;;;22.70;nan;100067.06;4973879;28;20202;-90
2023/06/26 04:45:25;;;;;;;0.00;0.00;;;;;;;22.89;nan;100070.63;4989945;28;20244;-88
2023/06/26 04:47:51;;;;;;;1.57;1.30;;;;;;;22.94;nan;100061.84;4974236;28;20199;-89
2023/06/26 04:50:18;;;;;;;0.30;0.30;;;;;;;23.03;nan;100057.44;4975340;28;20238;-88
2023/06/26 04:52:43;;;;;;;0.17;0.17;;;;;;;23.13;nan;100056.56;4973586;28;20237;-89
2023/06/26 04:55:09;;;;;;;0.00;0.00;;;;;;;23.20;nan;100060.53;4974963;28;20643;-89
2023/06/26 04:57:34;;;;;;;0.17;0.17;;;;;;;23.30;nan;100048.53;4981530;28;20665;-89
2023/06/26 04:59:59;;;;;;;0.40;0.40;;;;;;;23.29;nan;100046.91;4974462;28;20188;-88
2023/06/26 05:02:26;;;;;;;0.53;0.53;;;;;;;23.30;nan;100049.31;4973458;28;20256;-88
2023/06/26 05:04:52;;;;;;;0.07;0.07;;;;;;;23.32;nan;100052.50;4973838;28;20559;-88
2023/06/26 05:07:17;;;;;;;1.50;1.33;;;;;;;23.29;nan;100042.16;4973341;28;20221;-89
2023/06/26 05:09:42;;;;;;;0.00;0.00;;;;;;;23.41;nan;100044.44;4973083;28;20189;-88
2023/06/26 05:12:08;;;;;;;1.33;1.23;;;;;;;23.34;nan;100041.72;4971925;28;20221;-88
2023/06/26 05:14:33;;;;;;;1.23;1.10;;;;;;;23.40;nan;100036.50;4973594;28;20184;-88
2023/06/26 05:16:58;;;;;;;0.93;0.93;;;;;;;23.44;nan;100040.06;4973135;28;20839;-88
2023/06/26 05:19:24;;;;;;;1.10;1.00;;;;;;;23.45;nan;100038.88;4969588;28;20213;-88
2023/06/26 05:21:50;;;;;;;0.73;0.73;;;;;;;23.57;nan;100043.97;4969816;28;20197;-89
2023/06/26 05:24:16;;;;;;;0.37;0.37;;;;;;;23.56;nan;100036.78;4965172;28;20240;-89
2023/06/26 05:26:42;;;;;;;0.67;0.67;;;;;;;23.63;nan;100033.97;4973060;28;20186;-90
2023/06/26 05:29:08;;;;;;;0.47;0.47;;;;;;;23.69;nan;100026.75;4972538;28;20191;-88
2023/06/26 05:31:40;;;;;;;1.97;1.70;;;;;;;23.67;nan;100023.59;4973862;28;20205;-89
2023/06/26 05:34:06;;;;;;;1.30;1.20;;;;;;;23.70;nan;100025.53;4972998;28;20702;-88
2023/06/26 05:36:34;;;;;;;1.40;1.30;;;;;;;23.72;nan;100020.38;4974069;28;20197;-88
2023/06/26 05:38:59;;;;;;;0.23;0.23;;;;;;;23.81;nan;100016.31;4972376;28;20219;-89
2023/06/26 05:41:25;;;;;;;1.23;1.13;;;;;;;23.72;nan;100022.34;4972639;28;20202;-89
2023/06/26 05:43:50;;;;;;;0.63;0.63;;;;;;;23.78;nan;100008.75;4973259;28;20185;-88
2023/06/26 05:46:15;;;;;;;1.10;1.03;;;;;;;23.79;nan;100018.72;4972615;28;20187;-88
2023/06/26 05:48:41;;;;;;;0.40;0.37;;;;;;;23.89;nan;100006.69;4972244;28;20189;-89
2023/06/26 05:51:07;;;;;;;1.33;1.33;;;;;;;23.94;nan;100017.38;4972262;28;20225;-88
2023/06/26 05:53:33;;;;;;;1.03;0.97;;;;;;;23.90;nan;100011.84;4972562;28;20199;-88
2023/06/26 05:55:59;;;;;;;1.17;1.13;;;;;;;23.86;nan;100019.44;4972552;28;20560;-88
2023/06/26 05:58:27;;;;;;;1.40;1.30;;;;;;;23.94;nan;100011.81;4989407;28;20188;-88
2023/06/26 06:00:53;;;;;;;0.63;0.63;;;;;;;23.92;nan;100006.63;4973110;28;20239;-88
2023/06/26 06:03:18;;;;;;;0.80;0.80;;;;;;;23.90;nan;100011.06;4973365;28;20182;-89
2023/06/26 06:05:43;;;;;;;0.73;0.73;;;;;;;23.89;nan;100015.06;4972995;28;20192;-88
2023/06/26 06:08:09;;;;;;;1.60;1.50;;;;;;;23.95;nan;100016.97;4977402;28;20707;-89
2023/06/26 06:10:34;;;;;;;2.00;1.90;;;;;;;24.03;nan;100014.91;4975873;28;20193;-89
2023/06/26 06:13:00;;;;;;;1.50;1.40;;;;;;;24.07;nan;100012.88;4973344;28;20210;-88
2023/06/26 06:15:25;;;;;;;1.10;1.10;;;;;;;24.13;nan;100011.22;4972229;28;20648;-88
2023/06/26 06:17:50;;;;;;;0.73;0.73;;;;;;;24.16;nan;100015.16;4972095;28;20189;-88
2023/06/26 06:20:17;;;;;;;0.50;0.50;;;;;;;24.22;nan;100014.31;4972382;28;20212;-88
2023/06/26 06:22:42;;;;;;;1.33;1.23;;;;;;;24.29;nan;100011.47;4972123;28;20639;-89
2023/06/26 06:25:08;;;;;;;1.40;1.30;;;;;;;24.39;nan;100011.78;4972268;28;20194;-86
2023/06/26 06:27:33;;;;;;;1.40;1.20;;;;;;;24.48;nan;100012.09;4988165;28;20192;-89
2023/06/26 06:29:59;;;;;;;0.00;0.00;;;;;;;24.66;nan;100018.25;4972878;28;20273;-90
2023/06/26 06:32:24;;;;;;;0.00;0.00;;;;;;;24.80;nan;100012.47;4972461;28;20288;-88
2023/06/26 06:34:49;;;;;;;0.07;0.07;;;;;;;25.00;nan;100018.22;4972095;28;20227;-89
2023/06/26 06:37:14;;;;;;;0.57;0.57;;;;;;;25.08;nan;100014.13;4972621;28;20186;-89
2023/06/26 06:39:40;;;;;;;0.00;0.00;;;;;;;25.12;nan;100009.28;4972840;28;20228;-89
2023/06/26 06:42:05;;;;;;;0.57;0.57;;;;;;;25.23;nan;100011.94;4973005;28;20197;-88
2023/06/26 06:44:30;;;;;;;1.50;1.40;;;;;;;25.16;nan;100010.00;4975575;28;20189;-89
2023/06/26 06:46:56;;;;;;;0.00;0.00;;;;;;;25.28;nan;100019.84;4975760;28;20190;-90
2023/06/26 06:49:21;;;;;;;1.63;1.53;;;;;;;25.17;nan;100000.44;4972759;28;20740;-89
2023/06/26 06:51:47;;;;;;;0.57;0.57;;;;;;;25.26;nan;100001.91;4973407;28;20370;-89
2023/06/26 06:54:16;;;;;;;0.43;0.43;;;;;;;25.19;nan;99998.00;4975937;28;20738;-89
2023/06/26 06:56:41;;;;;;;0.67;0.67;;;;;;;25.38;nan;100002.09;4975859;28;20193;-88
2023/06/26 06:59:07;;;;;;;0.50;0.47;;;;;;;25.42;nan;100000.03;4974217;28;20200;-89
2023/06/26 07:01:32;;;;;;;0.53;0.13;;;;;;;25.52;nan;100004.69;4976788;28;20205;-90
2023/06/26 07:03:57;;;;;;;10.60;1.90;;;;;;;25.57;nan;100000.59;4976735;28;20189;-89
2023/06/26 07:06:22;;;;;;;1.23;1.00;;;;;;;25.54;nan;100003.47;4976246;28;20204;-89
2023/06/26 07:08:48;;;;;;;2.37;2.13;;;;;;;25.44;nan;100003.19;4975734;28;20197;-88
2023/06/26 07:11:13;;;;;;;0.40;0.40;;;;;;;25.43;nan;99992.44;4975820;28;20214;-89
2023/06/26 07:13:38;;;;;;;4.23;2.90;;;;;;;25.41;nan;100003.25;4975899;28;20190;-88
2023/06/26 07:16:04;;;;;;;2.23;2.10;;;;;;;25.46;nan;100006.41;4975632;28;20556;-88
2023/06/26 07:18:29;;;;;;;1.77;1.67;;;;;;;25.43;nan;100001.63;4975288;28;20201;-88
2023/06/26 07:20:54;;;;;;;0.90;0.80;;;;;;;25.64;nan;100005.31;4975468;28;20212;-88
2023/06/26 07:23:19;;;;;;;5.70;1.20;;;;;;;25.77;nan;100011.91;4975194;28;20687;-88
2023/06/26 07:25:45;;;;;;;1.27;1.20;;;;;;;25.77;nan;99995.91;4975616;28;20192;-88
2023/06/26 07:28:13;;;;;;;0.00;0.00;;;;;;;25.96;nan;100005.56;4975135;28;20198;-89
2023/06/26 07:30:39;;;;;;;2.57;2.37;;;;;;;25.85;nan;99999.38;4975138;28;20186;-88
2023/06/26 07:33:05;;;;;;;1.40;1.23;;;;;;;25.89;nan;100002.88;4973958;28;20221;-88
2023/06/26 07:35:30;;;;;;;0.70;0.67;;;;;;;25.88;nan;100003.31;4975558;28;20190;-89
2023/06/26 07:37:56;;;;;;;3.80;3.30;;;;;;;25.80;nan;100003.44;4991536;28;20314;-88
2023/06/26 07:40:21;;;;;;;1.00;1.00;;;;;;;25.92;nan;99993.66;4976156;28;20198;-89
2023/06/26 07:42:50;;;;;;;1.00;0.53;;;;;;;25.93;nan;100000.06;4972658;28;20206;-89
2023/06/26 07:45:15;;;;;;;1.93;1.07;;;;;;;26.03;nan;100002.63;4974821;28;20653;-89
2023/06/26 07:47:41;;;;;;;3.07;2.37;;;;;;;26.09;nan;100008.56;4974868;28;20247;-89
2023/06/26 07:50:06;;;;;;;0.43;0.43;;;;;;;26.06;nan;99998.22;4974553;28;20185;-90
2023/06/26 07:52:32;;;;;;;7.20;1.53;;;;;;;26.12;nan;99990.88;4974542;28;20268;-89
2023/06/26 07:54:58;;;;;;;0.30;0.20;;;;;;;26.31;nan;100011.72;4982813;28;20209;-89
2023/06/26 07:57:23;;;;;;;1.93;1.83;;;;;;;26.29;nan;99991.75;4974771;28;20656;-89
2023/06/26 07:59:49;;;;;;;2.27;2.10;;;;;;;26.19;nan;100004.78;4971694;28;20234;-89
2023/06/26 08:02:15;;;;;;;2.00;1.90;;;;;;;26.15;nan;100006.81;4974217;28;20296;-89
2023/06/26 08:04:40;;;;;;;2.43;2.33;;;;;;;26.15;nan;100006.81;4990583;28;20276;-87
2023/06/26 08:07:05;;;;;;;3.00;2.77;;;;;;;26.18;nan;100010.78;4974556;28;20239;-89
2023/06/26 08:09:31;;;;;;;0.17;0.17;;;;;;;26.25;nan;100007.84;4975612;28;20182;-90
2023/06/26 08:11:57;;;;;;;2.03;1.93;;;;;;;26.26;nan;100006.63;4975695;28;20218;-89
2023/06/26 08:14:23;;;;;;;1.67;1.57;;;;;;;26.23;nan;99999.09;4975665;28;20213;-88
2023/06/26 08:16:48;;;;;;;2.40;2.20;;;;;;;26.34;nan;99994.88;4974311;28;20679;-89
2023/06/26 08:19:15;;;;;;;2.20;2.00;;;;;;;26.44;nan;100001.50;4975182;28;20193;-89
2023/06/26 08:21:41;;;;;;;2.60;2.50;;;;;;;26.26;nan;99998.22;4974562;28;20205;-88
2023/06/26 08:24:07;;;;;;;3.37;3.07;;;;;;;26.29;nan;100002.97;4973293;28;20186;-88
2023/06/26 08:26:34;;;;;;;2.60;2.40;;;;;;;26.36;nan;100000.88;4975661;28;20563;-88
2023/06/26 08:28:59;;;;;;;2.27;2.10;;;;;;;26.35;nan;100001.28;4975163;28;20653;-88
2023/06/26 08:31:25;;;;;;;1.53;1.50;;;;;;;26.36;nan;99995.25;4973963;28;20245;-89
2023/06/26 08:33:50;;;;;;;1.97;1.87;;;;;;;26.44;nan;100006.31;4990605;28;20191;-89
2023/06/26 08:36:15;;;;;;;2.20;2.00;;;;;;;26.42;nan;99995.53;4975778;28;20186;-88
2023/06/26 08:38:41;;;;;;;1.50;1.40;;;;;;;26.56;nan;99988.88;4974371;28;20719;-89
2023/06/26 08:41:07;;;;;;;7.57;1.50;;;;;;;26.55;nan;99981.69;4974032;28;20201;-88
2023/06/26 08:43:33;;;;;;;1.53;1.43;;;;;;;26.64;nan;99977.09;4973731;28;20189;-89
2023/06/26 08:45:59;;;;;;;2.90;2.70;;;;;;;26.77;nan;99974.41;4973702;28;20190;-90
2023/06/26 08:48:25;;;;;;;1.23;1.23;;;;;;;26.93;nan;99987.69;4970476;28;20680;-89
2023/06/26 08:50:53;;;;;;;1.03;1.03;;;;;;;27.02;nan;99987.09;4986094;28;20209;-88
2023/06/26 08:53:30;;;;;;;4.67;3.20;;;;;;;26.91;nan;99984.53;4974926;28;20269;-88
2023/06/26 08:55:57;;;;;;;3.40;3.10;;;;;;;26.82;nan;99989.94;4973759;28;20197;-89
2023/06/26 08:58:23;;;;;;;1.50;1.43;;;;;;;26.89;nan;99984.94;4973304;28;20692;-88
2023/06/26 09:00:49;;;;;;;5.10;4.60;;;;;;;26.82;nan;99987.13;4974784;28;20307;-88
2023/06/26 09:03:15;;;;;;;2.40;2.20;;;;;;;27.01;nan;100000.34;4973881;28;20190;-88
2023/06/26 09:05:41;;;;;;;3.50;3.30;;;;;;;27.00;nan;100009.94;4973018;28;20663;-88
2023/06/26 09:08:07;;;;;;;10.53;3.50;;;;;;;26.88;nan;100008.59;4989645;28;20277;-88
2023/06/26 09:10:32;;;;;;;4.60;4.20;;;;;;;26.91;nan;100021.78;4975572;28;20200;-88
2023/06/26 09:12:58;;;;;;;4.50;4.13;;;;;;;26.97;nan;100030.44;4973485;28;20213;-89
2023/06/26 09:15:24;;;;;;;3.90;2.83;;;;;;;27.02;nan;100032.78;4990259;28;20674;-88
2023/06/26 09:17:50;;;;;;;4.43;4.10;;;;;;;26.94;nan;100034.13;4975000;28;20181;-87
2023/06/26 09:20:15;;;;;;;4.57;4.27;;;;;;;26.97;nan;100027.66;4974582;28;20192;-88
2023/06/26 09:22:43;;;;;;;2.67;2.47;;;;;;;26.88;nan;100042.25;4973376;28;20293;-88
2023/06/26 09:25:09;;;;;;;2.67;2.47;;;;;;;26.77;nan;100030.47;4973376;28;20185;-89
2023/06/26 09:27:36;;;;;;;2.20;2.10;;;;;;;26.80;nan;100032.41;4973358;28;20178;-88
2023/06/26 09:30:03;;;;;;;3.60;2.53;;;;;;;26.78;nan;100031.28;4981501;28;20197;-88
2023/06/26 09:32:29;;;;;;;3.47;3.27;;;;;;;26.76;nan;100028.09;4969672;28;20211;-88
2023/06/26 09:34:57;;;;;;;4.30;4.00;;;;;;;26.82;nan;100032.78;4970302;28;20186;-87
2023/06/26 09:37:22;;;;;;;4.97;4.57;;;;;;;26.88;nan;100039.44;4974229;28;20185;-89
2023/06/26 09:39:49;;;;;;;5.50;5.10;;;;;;;26.91;nan;100047.00;4972727;28;20714;-88
2023/06/26 09:42:14;;;;;;;4.60;4.17;;;;;;;26.97;nan;100041.66;4972921;28;20890;-87
2023/06/26 09:44:47;;;;;;;4.50;4.20;;;;;;;26.98;nan;100046.06;4974281;28;20264;-87
2023/06/26 09:47:17;;;;;;;4.10;3.77;;;;;;;27.13;nan;100050.16;4988949;28;20432;-88
2023/06/26 09:49:43;;;;;;;2.93;2.67;;;;;;;27.14;nan;100053.75;4972335;28;20194;-88
2023/06/26 09:52:08;;;;;;;3.70;3.23;;;;;;;26.94;nan;100053.75;4972566;28;20288;-88
2023/06/26 09:54:36;;;;;;;1.53;1.43;;;;;;;26.91;nan;100055.41;4988809;28;20272;-88
2023/06/26 09:57:09;;;;;;;2.57;2.37;;;;;;;27.05;nan;100057.13;4988911;28;20251;-89
2023/06/26 09:59:34;;;;;;;13.33;2.80;;;;;;;26.98;nan;100057.28;4972026;28;20185;-88
2023/06/26 10:02:00;;;;;;;18.93;3.60;;;;;;;26.87;nan;100073.53;4972609;28;20679;-88
2023/06/26 10:04:26;;;;;;;8.97;4.17;;;;;;;26.67;nan;100079.91;4972882;28;20655;-90
2023/06/26 10:06:55;;;;;;;10.03;3.30;;;;;;;26.51;nan;100088.25;4972497;28;20196;-88
2023/06/26 10:09:22;;;;;;;4.27;2.23;;;;;;;26.39;nan;100097.28;4972293;28;20344;-88
2023/06/26 10:11:56;;;;;;;14.57;3.97;;;;;;;26.03;nan;100100.63;4995503;23;20317;-91
2023/06/26 10:14:23;;;;;;;2.20;2.10;;;;;;;25.95;nan;100104.00;4982335;28;20656;-91
2023/06/26 10:16:50;;;;;;;4.70;2.70;;;;;;;25.71;nan;100105.97;4973608;28;20181;-91
2023/06/26 10:19:25;;;;;;;2.40;2.20;;;;;;;25.51;nan;100120.59;4972127;28;20246;-90
2023/06/26 10:21:54;;;;;;;2.20;2.10;;;;;;;25.46;nan;100118.28;4969273;28;20746;-90
2023/06/26 10:24:22;;;;;;;2.93;2.63;;;;;;;25.39;nan;100123.97;4962009;28;20188;-91
2023/06/26 10:26:51;;;;;;;5.30;4.83;;;;;;;25.36;nan;100129.63;4961457;28;20277;-91
2023/06/26 10:29:20;;;;;;;2.10;1.97;;;;;;;25.41;nan;100148.72;4952938;28;20194;-90
2023/06/26 10:31:51;;;;;;;3.43;2.70;;;;;;;25.33;nan;100136.06;4968877;28;20296;-91
2023/06/26 10:34:16;;;;;;;4.50;4.10;;;;;;;25.17;nan;100148.63;4969356;28;20182;-90
2023/06/26 10:36:42;;;;;;;6.07;4.63;;;;;;;25.24;nan;100158.94;4969221;28;20182;-91
2023/06/26 10:39:07;;;;;;;4.77;4.37;;;;;;;25.18;nan;100141.81;4954079;29;20186;-90
2023/06/26 10:41:38;;;;;;;4.27;3.87;;;;;;;25.27;nan;100143.31;4953093;28;20224;-90
2023/06/26 10:44:10;;;;;;;2.40;2.17;;;;;;;25.34;nan;100124.44;4953288;28;20569;-91
2023/06/26 10:46:52;;;;;;;10.80;5.70;;;;;;;25.25;nan;100149.31;4952786;28;20186;-90
2023/06/26 10:49:18;;;;;;;6.37;3.30;;;;;;;25.06;nan;100167.53;4969206;28;20712;-90
2023/06/26 10:51:49;;;;;;;3.77;3.47;;;;;;;24.90;nan;100186.84;4969373;28;20210;-91
2023/06/26 10:54:18;;;;;;;2.20;2.00;;;;;;;24.51;nan;100210.38;4953594;29;20190;-90
2023/06/26 10:56:45;;;;;;;2.77;2.57;;;;;;;24.27;nan;100212.09;4968999;28;20728;-90
2023/06/26 10:59:21;;;;;;;3.87;1.80;;;;;;;23.97;nan;100211.91;4952406;29;20277;-90
2023/06/26 11:02:00;;;;;;;0.87;0.73;;;;;;;23.60;nan;100210.53;4969168;28;20206;-91
2023/06/26 11:04:45;;;;;;;4.80;3.20;;;;;;;23.54;nan;100211.31;4946754;29;20190;-90
2023/06/26 11:07:24;;;;;;;0.40;0.40;;;;;;;23.33;nan;100223.34;4969123;28;20195;-91
2023/06/26 11:10:09;;;;;;;3.53;3.30;;;;;;;23.35;nan;100224.53;4952303;28;20280;-92
2023/06/26 11:13:37;;;;;;;2.73;2.53;;;;;;;23.39;nan;100222.53;4960682;28;20262;-91
2023/06/26 11:16:02;;;;;;;1.73;1.63;;;;;;;23.53;nan;100218.88;4948932;29;20624;-91
2023/06/26 11:18:28;;;;;;;3.67;1.63;;;;;;;23.81;nan;100217.19;4960450;28;20194;-91
2023/06/26 11:20:53;;;;;;;0.10;0.10;;;;;;;23.81;nan;100220.78;4952650;29;20212;-90
2023/06/26 11:23:24;;;;;;;1.10;1.00;;;;;;;23.80;nan;100212.81;4949328;29;20573;-90
2023/06/26 11:25:49;;;;;;;0.30;0.30;;;;;;;23.64;nan;100213.31;4964993;28;20186;-90
2023/06/26 11:28:15;;;;;;;0.00;0.00;;;;;;;23.65;nan;100217.69;4968099;28;20182;-91
2023/06/26 11:30:41;;;;;;;0.80;0.80;;;;;;;23.67;nan;100218.84;4971119;28;20275;-91
2023/06/26 11:33:15;;;;;;;0.93;0.93;;;;;;;23.74;nan;100226.41;4971827;28;20732;-91
2023/06/26 11:35:40;;;;;;;0.10;0.10;;;;;;;23.66;nan;100233.22;4971423;28;20202;-91
2023/06/26 11:38:06;;;;;;;2.67;2.47;;;;;;;23.79;nan;100236.34;4956920;28;20672;-91
2023/06/26 11:40:36;;;;;;;0.17;0.17;;;;;;;23.70;nan;100242.34;4963570;28;20217;-91